Kamrar, Iowa
Current Conditions -  °F | °C
As of 4:15 AM on Thursday 29 Jan 2015 (Local Time) from KEBS Reporting Station
Overcast Overcast  
Wind Chill: 22°   Ceiling: 800
Heat Index: 34°   Visibility: 8mi
Dew Point: 34°   Wind: 23mph
Humidity: 100%   Direction: 320°NW
Pressure: 29.97"   Gusts: 32mph
Location:  42.39°N, 93.73°W
Report Text: KEBS 291015Z AUTO 32020G28KT 8SM BKN008 OVC012 01/01 A2997 RMK AO2
Loading
Personal Weather Stations






























Interactive Weather Map New forecast layout! Learn more

10-Day Weather Forecast

Advertisements
Track Severe Weather on mobile